To NAV CANADA Home Page Login to a new session Search on AWWS site Feedback and Comments Disclaimer Vers la page française équivalente Tips FAQ What's new on the site To the Forecasts and Observations / NOTAM section To "File a Flight Plan" website Publications and other links Update of the User's profile FIC Telephone Numbers My Weather Data Folder Route Weather Data Regional Weather Data Local Weather Data To the Forecasts and Observations / NOTAM section
Request Generated 09/26/2017 at 05:37:33 UTC . Weather information available at that time is displayed.

METAR/TAF

MONCTON/GREATER MONCTON ROMEO LEBLANC INTL/NB    

METAR CYQM 260500Z 21008KT 15SM SKC 18/16 A2994 RMK SLP141 DENSITY
ALT 600FT=
METAR CYQM 260400Z 20008KT 15SM SKC 17/16 A2995 RMK SLP142 DENSITY
ALT 600FT=
METAR CYQM 260300Z 20007KT 15SM SKC 17/16 A2996 RMK SLP147 DENSITY
ALT 500FT=

TAF CYQM 252338Z 2600/2624 19008KT P6SM SKC
BECMG 2610/2612 24008KT
FM261600 27010KT P6SM SCT030 PROB30 2616/2619 2SM +TSRA BR
BKN020CB
FM261900 04008KT P6SM -SHRA BKN030
RMK NXT FCST BY 260600Z=
Your time UTC time
Weather data provided by Environment Canada and NAV CANADA